createdAt,value
2018-06-11T00:03:57.463Z,19.43
2018-06-11T00:09:00.375Z,11.73
2018-06-11T00:14:03.079Z,12.43
2018-06-11T00:19:05.698Z,15.00
2018-06-11T00:24:08.298Z,11.83
2018-06-11T00:29:11.003Z,11.30
2018-06-11T00:34:13.603Z,13.37
2018-06-11T00:39:16.225Z,12.63
2018-06-11T00:44:18.854Z,11.70
2018-06-11T00:49:21.523Z,12.80
2018-06-11T00:54:24.139Z,13.17
2018-06-11T00:59:26.752Z,11.60
2018-06-11T01:04:29.378Z,12.20
2018-06-11T01:09:31.998Z,15.53
2018-06-11T01:14:34.607Z,12.73
2018-06-11T01:19:37.311Z,13.30
2018-06-11T01:24:39.927Z,14.20
2018-06-11T01:29:42.546Z,22.20
2018-06-11T01:34:45.083Z,30.60
2018-06-11T01:39:47.670Z,32.47
2018-06-11T01:44:50.291Z,41.33
2018-06-11T01:49:52.879Z,65.27
2018-06-11T01:54:55.482Z,78.60
2018-06-11T01:59:58.096Z,77.57
2018-06-11T02:05:00.703Z,76.77
2018-06-11T02:10:03.399Z,56.93
2018-06-11T02:15:06.086Z,44.87
2018-06-11T02:20:08.701Z,37.47
2018-06-11T02:25:11.394Z,26.77
2018-06-11T02:30:14.019Z,21.57
2018-06-11T02:35:16.661Z,18.57
2018-06-11T02:40:19.840Z,22.60
2018-06-11T02:45:22.455Z,20.13
2018-06-11T02:50:25.198Z,20.57
2018-06-11T02:55:27.828Z,16.57
2018-06-11T03:00:30.447Z,16.30
2018-06-11T03:05:33.100Z,19.70
2018-06-11T03:10:35.692Z,19.00
2018-06-11T03:15:38.340Z,23.73
2018-06-11T03:20:40.889Z,16.73
2018-06-11T03:25:43.482Z,15.33
2018-06-11T03:30:46.164Z,18.77
2018-06-11T03:35:48.835Z,19.90
2018-06-11T03:40:51.448Z,16.73
2018-06-11T03:45:54.060Z,17.77
2018-06-11T03:50:56.690Z,17.70
2018-06-11T03:55:59.506Z,17.00
2018-06-11T04:01:02.150Z,15.53
2018-06-11T04:06:04.911Z,14.57
2018-06-11T04:11:07.607Z,14.47
2018-06-11T04:16:10.203Z,15.03
2018-06-11T04:21:12.811Z,17.47
2018-06-11T04:26:15.404Z,13.43
2018-06-11T04:31:18.007Z,11.53
2018-06-11T04:36:20.696Z,13.63
2018-06-11T04:41:23.387Z,12.93
2018-06-11T04:46:25.971Z,15.37
2018-06-11T04:51:28.588Z,15.43
2018-06-11T04:56:31.284Z,12.60
2018-06-11T05:01:33.900Z,12.13
2018-06-11T05:06:36.514Z,14.43
2018-06-11T05:11:39.213Z,10.10
2018-06-11T05:16:41.858Z,10.13
2018-06-11T05:21:44.472Z,9.87
2018-06-11T05:26:47.091Z,10.83
2018-06-11T05:31:49.687Z,12.40
2018-06-11T05:36:52.290Z,10.17
2018-06-11T05:41:54.907Z,12.40
2018-06-11T05:46:57.536Z,11.43
2018-06-11T05:52:00.108Z,10.40
2018-06-11T05:57:02.764Z,10.03
2018-06-11T06:02:05.406Z,12.23
2018-06-11T06:07:08.016Z,10.33
2018-06-11T06:12:10.659Z,12.67
2018-06-11T06:17:13.311Z,11.43
2018-06-11T06:22:15.923Z,12.17
2018-06-11T06:27:19.843Z,12.63
2018-06-11T06:32:22.447Z,13.40
2018-06-11T06:37:25.072Z,13.50
2018-06-11T06:42:27.699Z,14.03
2018-06-11T06:47:30.375Z,20.13
2018-06-11T06:52:32.991Z,21.47
2018-06-11T06:57:35.632Z,15.13
2018-06-11T07:02:38.238Z,14.90
2018-06-11T07:07:41.113Z,14.77
2018-06-11T07:12:43.792Z,15.93
2018-06-11T07:17:46.435Z,14.50
2018-06-11T07:22:49.043Z,14.63
2018-06-11T07:27:51.666Z,17.13
2018-06-11T07:32:54.291Z,14.90
2018-06-11T07:37:56.887Z,19.07
2018-06-11T07:42:59.507Z,14.80
2018-06-11T07:48:02.218Z,16.13
2018-06-11T07:53:04.799Z,15.80
2018-06-11T07:58:07.426Z,14.93
2018-06-11T08:03:10.036Z,15.17
2018-06-11T08:08:12.658Z,14.37
2018-06-11T08:13:15.277Z,16.23
2018-06-11T08:18:17.911Z,12.63
2018-06-11T08:23:20.550Z,13.37
2018-06-11T08:28:23.167Z,13.00
2018-06-11T08:33:25.790Z,14.80
2018-06-11T08:38:28.443Z,12.03
2018-06-11T08:43:31.181Z,10.53
2018-06-11T08:48:33.878Z,13.57
2018-06-11T08:53:36.516Z,11.93
2018-06-11T08:58:39.173Z,10.33
2018-06-11T09:03:41.810Z,11.40
2018-06-11T09:08:44.453Z,10.20
2018-06-11T09:13:47.075Z,14.20
2018-06-11T09:18:49.695Z,12.03
2018-06-11T09:23:52.411Z,14.37
2018-06-11T09:28:55.043Z,10.70
2018-06-11T09:33:57.649Z,12.40
2018-06-11T09:39:00.199Z,12.50
2018-06-11T09:44:02.978Z,10.60
2018-06-11T09:49:05.926Z,10.97
2018-06-11T09:54:08.502Z,11.60
2018-06-11T09:59:11.174Z,12.13
2018-06-11T10:04:13.875Z,11.33
2018-06-11T10:09:16.475Z,9.93
2018-06-11T10:14:19.092Z,8.27
2018-06-11T10:19:21.706Z,8.37
2018-06-11T10:24:24.445Z,7.90
2018-06-11T10:29:27.154Z,7.57
2018-06-11T10:34:29.804Z,8.57
2018-06-11T10:39:32.418Z,9.53
2018-06-11T10:44:35.049Z,7.67
2018-06-11T10:49:37.664Z,8.03
2018-06-11T10:54:40.311Z,8.40
2018-06-11T10:59:42.967Z,7.57
2018-06-11T11:04:45.614Z,6.63
2018-06-11T11:09:48.191Z,8.67
2018-06-11T11:14:50.920Z,8.77
2018-06-11T11:19:53.532Z,7.33
2018-06-11T11:24:56.151Z,6.27
2018-06-11T11:29:58.797Z,7.43
2018-06-11T11:35:01.420Z,9.43
2018-06-11T11:40:04.162Z,10.03
2018-06-11T11:45:06.799Z,7.93
2018-06-11T11:50:09.442Z,8.50
2018-06-11T11:55:12.092Z,9.60
2018-06-11T12:00:14.746Z,8.47
2018-06-11T12:05:17.402Z,7.80
2018-06-11T12:10:20.060Z,8.50
2018-06-11T12:15:22.663Z,9.20
2018-06-11T12:20:25.391Z,10.77
2018-06-11T12:25:28.104Z,10.37
2018-06-11T12:30:31.669Z,6.30
2018-06-11T12:35:34.277Z,8.37
2018-06-11T12:40:36.897Z,8.63
2018-06-11T12:45:39.566Z,6.67
2018-06-11T12:50:42.207Z,7.93
2018-06-11T12:55:44.881Z,6.13
2018-06-11T13:00:47.626Z,13.63
2018-06-11T13:05:50.258Z,11.03
2018-06-11T13:10:52.883Z,9.23
2018-06-11T13:15:55.511Z,10.50
2018-06-11T13:20:58.879Z,5.83
2018-06-11T13:26:01.492Z,8.90
2018-06-11T13:31:04.119Z,10.03
2018-06-11T13:36:06.806Z,12.70
2018-06-11T13:41:09.434Z,10.43
2018-06-11T13:46:12.139Z,11.38
2018-06-11T13:51:14.754Z,10.38
2018-06-11T13:56:17.400Z,12.70
2018-06-11T14:01:20.182Z,13.00
2018-06-11T14:06:22.954Z,16.12
2018-06-11T14:11:25.626Z,10.05
2018-06-11T14:16:28.316Z,13.72
2018-06-11T14:21:30.974Z,9.98
2018-06-11T14:26:33.579Z,11.80
2018-06-11T14:31:36.199Z,12.40
2018-06-11T14:36:38.832Z,11.73
2018-06-11T14:41:41.476Z,10.78
2018-06-11T14:46:44.148Z,15.58
2018-06-11T14:51:46.788Z,8.67
2018-06-11T14:56:49.435Z,8.33
2018-06-11T15:01:52.063Z,14.87
2018-06-11T15:06:55.650Z,7.57
2018-06-11T15:12:01.597Z,10.67
2018-06-11T15:17:04.293Z,12.63
2018-06-11T15:22:06.920Z,18.93
2018-06-11T15:27:09.538Z,12.10
2018-06-11T15:32:12.278Z,11.80
2018-06-11T15:37:15.903Z,15.60
2018-06-11T15:42:18.510Z,17.77
2018-06-11T15:47:21.214Z,15.07
2018-06-11T15:52:23.850Z,15.43
2018-06-11T15:57:26.518Z,12.63
2018-06-11T16:02:29.131Z,15.13
2018-06-11T16:07:31.808Z,14.83
2018-06-11T16:12:35.060Z,13.30
2018-06-11T16:17:37.678Z,12.10
2018-06-11T16:22:40.279Z,12.67
2018-06-11T16:27:42.928Z,13.30
2018-06-11T16:32:45.691Z,9.57
2018-06-11T16:37:48.296Z,9.03
2018-06-11T16:42:50.983Z,6.77
2018-06-11T16:47:53.763Z,9.73
2018-06-11T16:52:56.425Z,10.10
2018-06-11T16:58:00.467Z,9.07
2018-06-11T17:03:03.165Z,9.10
2018-06-11T17:08:05.823Z,7.30
2018-06-11T17:13:08.458Z,4.03
2018-06-11T17:18:11.095Z,10.47
2018-06-11T17:23:13.820Z,11.67
2018-06-11T17:28:16.472Z,14.27
2018-06-11T17:33:19.096Z,9.97
2018-06-11T17:38:21.765Z,12.00
2018-06-11T17:43:24.396Z,9.83
2018-06-11T17:48:27.060Z,12.27
2018-06-11T17:53:29.732Z,14.80
2018-06-11T17:58:32.427Z,18.93
2018-06-11T18:03:35.110Z,20.30
2018-06-11T18:08:37.807Z,12.20
2018-06-11T18:13:40.443Z,13.53
2018-06-11T18:18:43.145Z,15.87
2018-06-11T18:23:45.899Z,15.73
2018-06-11T18:28:48.575Z,9.40
2018-06-11T18:33:51.253Z,9.43
2018-06-11T18:38:53.928Z,10.47
2018-06-11T18:43:56.614Z,14.97
2018-06-11T18:48:59.252Z,9.63
2018-06-11T18:54:01.905Z,9.13
2018-06-11T18:59:04.467Z,10.80
2018-06-11T19:04:07.168Z,8.77
2018-06-11T19:09:10.167Z,8.10
2018-06-11T19:14:12.853Z,11.40
2018-06-11T19:19:15.571Z,11.27
2018-06-11T19:24:18.217Z,10.77
2018-06-11T19:29:21.128Z,7.03
2018-06-11T19:34:23.831Z,8.83
2018-06-11T19:39:26.535Z,9.93
2018-06-11T19:44:29.210Z,9.93
2018-06-11T19:49:31.859Z,9.43
2018-06-11T19:54:34.512Z,10.63
2018-06-11T19:59:37.151Z,8.67
2018-06-11T20:04:39.734Z,6.10
2018-06-11T20:09:42.822Z,10.50
2018-06-11T20:14:45.840Z,9.43
2018-06-11T20:19:48.640Z,8.10
2018-06-11T20:24:51.389Z,9.27
2018-06-11T20:29:54.203Z,16.63
2018-06-11T20:34:56.962Z,11.57
2018-06-11T20:39:59.675Z,9.80
2018-06-11T20:45:02.381Z,9.37
2018-06-11T20:50:05.137Z,8.17
2018-06-11T20:55:07.828Z,11.33
2018-06-11T21:00:10.519Z,6.40
2018-06-11T21:05:13.330Z,9.03
2018-06-11T21:10:16.028Z,10.03
2018-06-11T21:15:18.862Z,8.30
2018-06-11T21:20:21.497Z,6.90
2018-06-11T21:25:24.203Z,9.63
2018-06-11T21:30:26.852Z,5.67
2018-06-11T21:35:29.486Z,7.37
2018-06-11T21:40:32.247Z,7.23
2018-06-11T21:45:34.903Z,9.13
2018-06-11T21:50:37.950Z,8.13
2018-06-11T21:55:40.643Z,11.60
2018-06-11T22:00:44.799Z,13.47
2018-06-11T22:05:47.819Z,8.57
2018-06-11T22:10:50.547Z,12.00
2018-06-11T22:15:53.314Z,12.83
2018-06-11T22:20:55.959Z,10.73
2018-06-11T22:25:58.556Z,7.30
2018-06-11T22:31:01.400Z,8.07
2018-06-11T22:36:04.002Z,8.40
2018-06-11T22:41:06.678Z,8.07
2018-06-11T22:46:09.288Z,9.00
2018-06-11T22:51:11.887Z,11.93
2018-06-11T22:56:14.553Z,10.37
2018-06-11T23:01:17.336Z,10.90
2018-06-11T23:06:20.094Z,17.07
2018-06-11T23:11:22.711Z,11.30
2018-06-11T23:16:25.414Z,10.50
2018-06-11T23:21:28.108Z,8.40
2018-06-11T23:26:30.787Z,8.97
2018-06-11T23:31:33.390Z,11.57
2018-06-11T23:36:36.035Z,9.57
2018-06-11T23:41:38.627Z,12.97
2018-06-11T23:46:41.242Z,7.70
2018-06-11T23:51:44.168Z,8.17
2018-06-11T23:56:46.924Z,9.60
